首页
METAR-TAF:

METAR-TAF

机场 :

爱德华·劳伦斯·洛根将军国际机场

波士顿, 马萨诸塞州, 美国

纬度: 42-21-38N, 经度: 071-00-38W, 海拔: 6米

当前天气观测

该预报发布于45分钟前的13:54 UTC
风速10节,风向南转南东
温度 12°C
湿度 67%
气压 1020 hPa
能見度: 16.1公里
少量云层高于5000英尺
多云层高于11000英尺

METAR: KBOS 231354Z 15010KT 10SM FEW050 BKN110 12/06 A3012 RMK AO2 SLP199 T01170056

时间: 10:39 (14:39 UTC)

预报

该预报发布于3小时和19分钟前的11:20 UTC
预报有效从23日的 12点(UTC)到 24日的 18点(UTC)
风速7节,风向
能見度: 10公里
阴天层高于10000英尺
从 23日的 1600点(UTC)
风速10节,风向南转南东
能見度: 9.7公里
阴天层高于2500英尺
小阵雨
从 23日的 2200点(UTC)
风速10节,风向南转西南,有时为18节阵风
能見度: 10公里
阴天层高于2000英尺
从 24日的 0000点(UTC)
风速10节,风向西转西北
能見度: 10公里
阴天层高于3500英尺
从 24日的 0500点(UTC)
风速10节,风向西北
能見度: 10公里
阴天层高于1500英尺
从 24日的 1600点(UTC)
风速12节,风向西北,有时为20节阵风
能見度: 10公里
多云层高于3500英尺

TAF: KBOS 231120Z 2312/2418 17007KT P6SM OVC100 FM231600 15010KT 6SM -SHRA OVC025 FM232200 20010G18KT P6SM OVC020 FM240000 30010KT P6SM OVC035 FM240500 31010KT P6SM OVC015 FM241600 32012G20KT P6SM BKN035

超过4000个机场的气象观测和天气预报(METAR&TAF报告)。

可查询的气象台以黄色和红色小点在地图上表示。

将鼠标移到小点上方,可查看气象台名称。

然后点击查看天气观测和预报。

如需切换地图:点击带黑十字的绿色按钮放大地图;点击带横线的绿色按钮缩小地图;或者点击绿色箭头查看邻近地区的地图。


METAR-TAF: